createdAt,value
2022-07-31T00:00:49.077Z,15.90
2022-07-31T00:03:18.261Z,15.90
2022-07-31T00:05:46.077Z,15.80
2022-07-31T00:08:15.159Z,15.70
2022-07-31T00:10:42.939Z,15.70
2022-07-31T00:13:10.771Z,15.60
2022-07-31T00:15:38.588Z,15.60
2022-07-31T00:18:06.470Z,15.60
2022-07-31T00:20:35.930Z,15.50
2022-07-31T00:23:03.886Z,15.50
2022-07-31T00:25:32.054Z,15.50
2022-07-31T00:28:00.218Z,15.40
2022-07-31T00:30:28.002Z,15.40
2022-07-31T00:32:55.847Z,15.30
2022-07-31T00:35:23.860Z,15.30
2022-07-31T00:38:02.181Z,15.30
2022-07-31T00:40:48.172Z,15.20
2022-07-31T00:43:16.431Z,15.10
2022-07-31T00:45:44.683Z,15.00
2022-07-31T00:48:12.595Z,14.90
2022-07-31T00:50:40.594Z,14.90
2022-07-31T00:53:09.763Z,14.80
2022-07-31T00:55:51.387Z,14.80
2022-07-31T00:58:20.308Z,14.80
2022-07-31T01:00:48.995Z,14.80
2022-07-31T01:03:18.532Z,14.80
2022-07-31T01:05:46.375Z,14.80
2022-07-31T01:08:16.352Z,14.80
2022-07-31T01:10:53.255Z,14.90
2022-07-31T01:13:27.525Z,14.90
2022-07-31T01:15:56.514Z,14.90
2022-07-31T01:18:25.724Z,15.00
2022-07-31T01:20:56.567Z,15.10
2022-07-31T01:24:03.960Z,15.10
2022-07-31T01:26:42.173Z,15.00
2022-07-31T01:29:19.299Z,15.00
2022-07-31T01:31:50.691Z,15.00
2022-07-31T01:34:26.563Z,15.00
2022-07-31T01:37:01.651Z,14.90
2022-07-31T01:39:34.048Z,14.90
2022-07-31T01:42:06.085Z,14.90
2022-07-31T01:44:41.458Z,14.90
2022-07-31T01:47:10.456Z,15.00
2022-07-31T01:49:39.260Z,15.00
2022-07-31T01:52:08.487Z,15.00
2022-07-31T01:54:37.406Z,15.00
2022-07-31T01:57:07.083Z,14.90
2022-07-31T01:59:38.975Z,14.80
2022-07-31T02:02:13.318Z,14.80
2022-07-31T02:04:41.608Z,14.70
2022-07-31T02:07:10.968Z,14.70
2022-07-31T02:09:57.926Z,14.60
2022-07-31T02:12:32.130Z,14.60
2022-07-31T02:15:05.396Z,14.60
2022-07-31T02:17:33.858Z,14.60
2022-07-31T02:20:03.579Z,14.60
2022-07-31T02:22:31.415Z,14.60
2022-07-31T02:24:59.879Z,14.50
2022-07-31T02:27:57.040Z,14.40
2022-07-31T02:30:19.767Z,14.30
2022-07-31T02:32:49.464Z,14.20
2022-07-31T02:35:19.889Z,14.20
2022-07-31T02:37:51.302Z,14.10
2022-07-31T02:40:19.990Z,14.10
2022-07-31T02:42:49.012Z,14.00
2022-07-31T02:45:25.177Z,14.00
2022-07-31T02:47:53.110Z,13.90
2022-07-31T02:50:21.170Z,13.90
2022-07-31T02:52:49.179Z,13.90
2022-07-31T02:55:18.309Z,13.90
2022-07-31T02:57:48.089Z,13.90
2022-07-31T03:00:22.677Z,13.80
2022-07-31T03:02:53.798Z,13.90
2022-07-31T03:05:22.024Z,13.90
2022-07-31T03:07:50.511Z,13.80
2022-07-31T03:10:18.351Z,13.80
2022-07-31T03:12:49.935Z,13.80
2022-07-31T03:15:20.441Z,13.80
2022-07-31T03:17:49.866Z,13.80
2022-07-31T03:20:19.665Z,13.70
2022-07-31T03:22:47.877Z,13.60
2022-07-31T03:25:20.069Z,13.60
2022-07-31T03:27:56.404Z,13.60
2022-07-31T03:30:25.886Z,13.50
2022-07-31T03:32:54.002Z,13.50
2022-07-31T03:35:24.197Z,13.40
2022-07-31T03:37:52.250Z,13.40
2022-07-31T03:40:20.222Z,13.30
2022-07-31T03:42:49.798Z,13.30
2022-07-31T03:45:18.249Z,13.20
2022-07-31T03:47:46.243Z,13.20
2022-07-31T03:50:15.779Z,13.20
2022-07-31T03:52:46.160Z,13.20
2022-07-31T03:55:14.483Z,13.10
2022-07-31T03:57:42.921Z,13.10
2022-07-31T04:00:16.969Z,13.10
2022-07-31T04:02:46.157Z,13.10
2022-07-31T04:05:14.280Z,13.10
2022-07-31T04:07:42.105Z,13.10
2022-07-31T04:10:12.356Z,13.20
2022-07-31T04:12:40.277Z,13.30
2022-07-31T04:15:08.859Z,13.40
2022-07-31T04:17:37.191Z,13.60
2022-07-31T04:20:07.599Z,13.70
2022-07-31T04:22:35.703Z,13.70
2022-07-31T04:25:05.599Z,13.80
2022-07-31T04:27:36.517Z,13.90
2022-07-31T04:30:16.441Z,14.00
2022-07-31T04:32:44.347Z,14.20
2022-07-31T04:35:13.638Z,14.90
2022-07-31T04:37:48.561Z,15.50
2022-07-31T04:40:16.980Z,16.30
2022-07-31T04:42:46.186Z,17.10
2022-07-31T04:45:14.063Z,17.20
2022-07-31T04:47:41.926Z,17.20
2022-07-31T04:50:10.567Z,17.60
2022-07-31T04:52:38.390Z,17.90
2022-07-31T04:55:06.886Z,18.40
2022-07-31T04:57:34.709Z,18.50
2022-07-31T05:00:04.757Z,18.70
2022-07-31T05:02:32.612Z,19.20
2022-07-31T05:05:00.419Z,19.50
2022-07-31T05:07:29.032Z,19.20
2022-07-31T05:09:57.193Z,18.70
2022-07-31T05:12:25.094Z,18.40
2022-07-31T05:14:53.435Z,17.90
2022-07-31T05:17:22.642Z,17.70
2022-07-31T05:19:50.447Z,17.70
2022-07-31T05:22:18.934Z,17.60
2022-07-31T05:24:46.857Z,17.90
2022-07-31T05:27:14.706Z,18.30
2022-07-31T05:29:42.509Z,18.70
2022-07-31T05:32:10.549Z,18.60
2022-07-31T05:34:39.813Z,18.50
2022-07-31T05:37:07.888Z,18.60
2022-07-31T05:39:35.696Z,19.00
2022-07-31T05:42:03.642Z,19.30
2022-07-31T05:44:31.609Z,19.70
2022-07-31T05:49:28.908Z,20.90
2022-07-31T05:51:58.167Z,21.30
2022-07-31T05:54:25.986Z,21.70
2022-07-31T05:56:53.791Z,21.80
2022-07-31T05:59:21.592Z,21.50
2022-07-31T06:01:49.957Z,22.00
2022-07-31T06:04:17.810Z,22.50
2022-07-31T06:06:45.620Z,22.70
2022-07-31T06:09:14.832Z,22.70
2022-07-31T06:11:42.656Z,21.90
2022-07-31T06:14:10.535Z,21.50
2022-07-31T06:16:38.417Z,21.00
2022-07-31T06:19:06.225Z,20.80
2022-07-31T06:21:34.051Z,20.90
2022-07-31T06:24:02.378Z,21.20
2022-07-31T06:26:31.617Z,21.30
2022-07-31T06:28:59.453Z,21.20
2022-07-31T06:31:27.309Z,21.00
2022-07-31T06:33:55.161Z,21.10
2022-07-31T06:36:22.974Z,21.00
2022-07-31T06:38:50.852Z,20.90
2022-07-31T06:41:32.637Z,20.90
2022-07-31T06:44:01.815Z,20.80
2022-07-31T06:46:29.805Z,20.70
2022-07-31T06:48:57.736Z,20.70
2022-07-31T06:51:32.711Z,21.10
2022-07-31T06:54:01.109Z,22.00
2022-07-31T06:56:29.054Z,22.80
2022-07-31T06:58:56.925Z,23.40
2022-07-31T07:01:26.209Z,23.60
2022-07-31T07:03:54.658Z,23.90
2022-07-31T07:06:22.819Z,24.30
2022-07-31T07:08:51.023Z,24.20
2022-07-31T07:11:19.489Z,24.60
2022-07-31T07:13:47.547Z,25.20
2022-07-31T07:16:16.036Z,25.90
2022-07-31T07:18:45.206Z,26.10
2022-07-31T07:21:13.322Z,25.60
2022-07-31T07:23:41.383Z,25.30
2022-07-31T07:26:09.577Z,26.10
2022-07-31T07:28:37.641Z,25.70
2022-07-31T07:31:06.166Z,26.60
2022-07-31T07:33:41.790Z,26.90
2022-07-31T07:36:23.285Z,26.30
2022-07-31T07:38:53.574Z,26.50
2022-07-31T07:41:23.601Z,26.70
2022-07-31T07:43:52.569Z,27.40
2022-07-31T07:46:21.205Z,27.00
2022-07-31T07:48:50.695Z,26.80
2022-07-31T07:51:21.408Z,26.70
2022-07-31T07:53:49.385Z,26.60
2022-07-31T07:56:17.555Z,26.80
2022-07-31T07:58:45.601Z,27.40
2022-07-31T08:01:14.166Z,27.90
2022-07-31T08:03:48.521Z,27.40
2022-07-31T08:06:21.190Z,27.40
2022-07-31T08:08:49.004Z,26.80
2022-07-31T08:11:17.835Z,27.40
2022-07-31T08:13:50.598Z,27.10
2022-07-31T08:16:19.626Z,26.30
2022-07-31T08:18:47.623Z,26.00
2022-07-31T08:21:15.519Z,26.00
2022-07-31T08:23:44.736Z,25.90
2022-07-31T08:26:13.954Z,26.30
2022-07-31T08:28:50.491Z,26.10
2022-07-31T08:31:19.863Z,26.70
2022-07-31T08:33:48.418Z,27.50
2022-07-31T08:36:16.272Z,26.20
2022-07-31T08:38:45.523Z,26.60
2022-07-31T08:41:14.819Z,27.00
2022-07-31T08:44:00.396Z,27.70
2022-07-31T08:46:32.449Z,27.90
2022-07-31T08:49:03.788Z,27.70
2022-07-31T08:52:01.798Z,27.80
2022-07-31T08:54:27.434Z,28.00
2022-07-31T08:56:55.269Z,27.00
2022-07-31T08:59:23.168Z,27.80
2022-07-31T09:01:51.409Z,28.50
2022-07-31T09:04:19.268Z,28.50
2022-07-31T09:06:47.198Z,28.80
2022-07-31T09:09:17.828Z,28.30
2022-07-31T09:11:53.787Z,27.50
2022-07-31T09:14:29.434Z,27.20
2022-07-31T09:16:58.240Z,27.50
2022-07-31T09:19:51.724Z,27.70
2022-07-31T09:22:23.382Z,28.20
2022-07-31T09:24:51.613Z,27.60
2022-07-31T09:27:21.351Z,27.20
2022-07-31T09:29:50.025Z,27.80
2022-07-31T09:32:19.275Z,28.40
2022-07-31T09:34:47.980Z,28.60
2022-07-31T09:37:17.753Z,29.00
2022-07-31T09:39:52.196Z,28.70
2022-07-31T09:42:25.054Z,28.70
2022-07-31T09:44:53.235Z,28.20
2022-07-31T09:47:22.992Z,27.50
2022-07-31T09:49:55.536Z,26.50
2022-07-31T09:52:24.159Z,26.30
2022-07-31T09:55:02.736Z,26.60
2022-07-31T09:57:53.902Z,26.30
2022-07-31T10:00:21.902Z,26.10
2022-07-31T10:02:50.543Z,26.30
2022-07-31T10:05:19.475Z,26.20
2022-07-31T10:07:48.043Z,26.20
2022-07-31T10:10:17.083Z,26.70
2022-07-31T10:12:51.089Z,27.40
2022-07-31T10:15:21.705Z,28.60
2022-07-31T10:17:52.512Z,28.20
2022-07-31T10:20:22.611Z,26.90
2022-07-31T10:22:55.270Z,27.50
2022-07-31T10:25:26.383Z,27.60
2022-07-31T10:27:57.020Z,27.30
2022-07-31T10:30:28.953Z,26.30
2022-07-31T10:32:58.555Z,26.50
2022-07-31T10:35:26.806Z,26.60
2022-07-31T10:38:00.901Z,26.60
2022-07-31T10:40:37.747Z,26.40
2022-07-31T10:43:20.904Z,26.80
2022-07-31T10:45:51.486Z,26.90
2022-07-31T10:48:19.561Z,27.10
2022-07-31T10:50:48.168Z,27.00
2022-07-31T10:53:17.535Z,26.60
2022-07-31T10:55:46.049Z,26.90
2022-07-31T10:58:16.028Z,27.20
2022-07-31T11:00:45.467Z,27.20
2022-07-31T11:03:16.871Z,27.00
2022-07-31T11:06:02.003Z,27.40
2022-07-31T11:08:42.092Z,27.20
2022-07-31T11:11:11.271Z,27.70
2022-07-31T11:13:52.845Z,28.30
2022-07-31T11:16:20.995Z,27.50
2022-07-31T11:18:59.427Z,27.90
2022-07-31T11:21:38.848Z,28.20
2022-07-31T11:24:14.758Z,27.80
2022-07-31T11:26:52.064Z,27.60
2022-07-31T11:30:01.945Z,27.80
2022-07-31T11:32:24.830Z,27.80
2022-07-31T11:34:56.517Z,27.30
2022-07-31T11:37:27.502Z,27.20
2022-07-31T11:40:07.536Z,27.10
2022-07-31T11:42:44.570Z,27.50
2022-07-31T11:45:15.055Z,27.50
2022-07-31T11:48:11.736Z,27.70
2022-07-31T11:50:41.863Z,28.10
2022-07-31T11:53:09.803Z,27.80
2022-07-31T11:55:46.061Z,27.90
2022-07-31T11:58:15.193Z,28.00
2022-07-31T12:00:51.408Z,28.40
2022-07-31T12:03:20.467Z,28.20
2022-07-31T12:05:52.215Z,28.70
2022-07-31T12:08:22.017Z,28.70
2022-07-31T12:10:50.159Z,28.30
2022-07-31T12:13:19.483Z,27.60
2022-07-31T12:15:58.582Z,27.50
2022-07-31T12:18:28.712Z,27.80
2022-07-31T12:20:59.704Z,28.40
2022-07-31T12:23:41.357Z,28.70
2022-07-31T12:26:12.147Z,29.30
2022-07-31T12:28:40.064Z,28.80
2022-07-31T12:31:07.849Z,29.50
2022-07-31T12:33:42.455Z,30.00
2022-07-31T12:36:16.168Z,29.70
2022-07-31T12:38:47.796Z,29.80
2022-07-31T12:41:17.519Z,29.70
2022-07-31T12:43:51.298Z,29.50
2022-07-31T12:46:21.444Z,29.30
2022-07-31T12:48:49.331Z,29.60
2022-07-31T12:51:20.182Z,29.70
2022-07-31T12:54:08.418Z,29.90
2022-07-31T12:56:37.577Z,30.10
2022-07-31T12:59:06.469Z,30.30
2022-07-31T13:01:34.544Z,30.40
2022-07-31T13:04:03.530Z,30.10
2022-07-31T13:06:33.110Z,30.30
2022-07-31T13:09:00.923Z,30.30
2022-07-31T13:11:46.034Z,29.50
2022-07-31T13:14:15.797Z,28.80
2022-07-31T13:16:43.621Z,29.10
2022-07-31T13:19:11.596Z,29.80
2022-07-31T13:21:48.420Z,29.60
2022-07-31T13:24:16.781Z,30.10
2022-07-31T13:26:45.342Z,30.20
2022-07-31T13:29:13.975Z,30.00
2022-07-31T13:31:41.788Z,30.00
2022-07-31T13:34:09.704Z,29.80
2022-07-31T13:36:39.407Z,29.30
2022-07-31T13:39:09.188Z,29.40
2022-07-31T13:41:39.181Z,29.00
2022-07-31T13:44:07.984Z,28.70
2022-07-31T13:46:35.853Z,28.50
2022-07-31T13:49:08.151Z,28.30
2022-07-31T13:51:36.393Z,28.10
2022-07-31T13:54:04.618Z,28.20
2022-07-31T13:56:42.370Z,28.50
2022-07-31T13:59:12.560Z,29.10
2022-07-31T14:02:03.880Z,29.40
2022-07-31T14:04:31.424Z,30.10
2022-07-31T14:07:00.930Z,30.00
2022-07-31T14:09:29.875Z,29.70
2022-07-31T14:11:59.147Z,29.80
2022-07-31T14:14:31.810Z,30.40
2022-07-31T14:17:00.107Z,30.40
2022-07-31T14:19:28.021Z,30.30
2022-07-31T14:21:57.564Z,30.30
2022-07-31T14:24:25.699Z,30.10
2022-07-31T14:26:53.723Z,30.20
2022-07-31T14:29:22.860Z,30.30
2022-07-31T14:31:51.670Z,30.30
2022-07-31T14:34:19.533Z,30.40
2022-07-31T14:36:47.359Z,30.60
2022-07-31T14:39:15.233Z,30.40
2022-07-31T14:41:43.315Z,30.20
2022-07-31T14:44:11.110Z,30.10
2022-07-31T14:46:40.258Z,30.10
2022-07-31T14:49:08.628Z,29.90
2022-07-31T14:51:36.523Z,29.60
2022-07-31T14:54:05.095Z,29.50
2022-07-31T14:56:59.714Z,29.10
2022-07-31T14:59:27.106Z,28.60
2022-07-31T15:01:56.529Z,28.80
2022-07-31T15:04:24.391Z,29.10
2022-07-31T15:07:03.071Z,29.20
2022-07-31T15:09:40.415Z,29.70
2022-07-31T15:12:08.980Z,29.70
2022-07-31T15:14:36.766Z,29.40
2022-07-31T15:17:06.260Z,29.20
2022-07-31T15:19:34.409Z,29.40
2022-07-31T15:22:15.721Z,29.50
2022-07-31T15:24:48.794Z,29.30
2022-07-31T15:27:17.959Z,29.90
2022-07-31T15:30:04.087Z,30.10
2022-07-31T15:32:36.413Z,30.20
2022-07-31T15:35:04.976Z,29.90
2022-07-31T15:37:35.002Z,29.80
2022-07-31T15:40:05.367Z,29.60
2022-07-31T15:42:33.655Z,29.50
2022-07-31T15:45:01.579Z,29.50
2022-07-31T15:47:29.660Z,29.70
2022-07-31T15:49:58.917Z,29.30
2022-07-31T15:52:26.858Z,29.40
2022-07-31T15:54:54.825Z,29.50
2022-07-31T15:57:23.763Z,29.70
2022-07-31T15:59:54.244Z,29.40
2022-07-31T16:02:23.106Z,29.00
2022-07-31T16:04:52.933Z,28.80
2022-07-31T16:08:28.539Z,28.60
2022-07-31T16:10:17.692Z,28.50
2022-07-31T16:12:46.493Z,28.60
2022-07-31T16:15:15.015Z,28.60
2022-07-31T16:17:44.562Z,28.80
2022-07-31T16:20:25.253Z,29.00
2022-07-31T16:22:57.955Z,29.30
2022-07-31T16:25:26.656Z,29.80
2022-07-31T16:27:55.007Z,29.90
2022-07-31T16:30:27.482Z,29.70
2022-07-31T16:32:55.575Z,29.50
2022-07-31T16:35:26.065Z,29.20
2022-07-31T16:37:55.651Z,28.80
2022-07-31T16:40:28.533Z,28.50
2022-07-31T16:43:03.001Z,28.40
2022-07-31T16:45:49.968Z,28.90
2022-07-31T16:48:17.910Z,29.50
2022-07-31T16:50:48.208Z,29.30
2022-07-31T16:54:11.199Z,28.70
2022-07-31T16:56:11.753Z,28.40
2022-07-31T16:58:40.292Z,28.30
2022-07-31T17:01:57.905Z,28.70
2022-07-31T17:04:00.294Z,28.90
2022-07-31T17:06:36.346Z,29.30
2022-07-31T17:09:15.923Z,29.00
2022-07-31T17:11:45.851Z,28.80
2022-07-31T17:14:13.661Z,28.60
2022-07-31T17:16:46.844Z,28.90
2022-07-31T17:19:15.754Z,28.90
2022-07-31T17:21:44.658Z,29.00
2022-07-31T17:24:15.758Z,28.70
2022-07-31T17:26:45.262Z,28.40
2022-07-31T17:29:13.557Z,28.30
2022-07-31T17:31:41.421Z,28.30
2022-07-31T17:34:09.596Z,28.30
2022-07-31T17:36:37.825Z,28.20
2022-07-31T17:39:06.253Z,28.20
2022-07-31T17:41:39.047Z,28.10
2022-07-31T17:44:06.855Z,27.90
2022-07-31T17:46:36.507Z,27.80
2022-07-31T17:49:08.172Z,27.80
2022-07-31T17:51:36.173Z,27.90
2022-07-31T17:54:04.770Z,27.70
2022-07-31T17:56:32.544Z,27.70
2022-07-31T17:59:05.678Z,27.70
2022-07-31T18:01:34.460Z,27.50
2022-07-31T18:04:02.662Z,27.30
2022-07-31T18:06:30.518Z,27.20
2022-07-31T18:08:58.883Z,27.00
2022-07-31T18:11:26.862Z,26.90
2022-07-31T18:13:55.475Z,27.20
2022-07-31T18:16:30.123Z,27.20
2022-07-31T18:18:58.003Z,27.10
2022-07-31T18:21:25.813Z,27.00
2022-07-31T18:23:53.702Z,26.90
2022-07-31T18:26:22.524Z,26.80
2022-07-31T18:28:50.615Z,26.70
2022-07-31T18:31:34.966Z,26.60
2022-07-31T18:34:05.781Z,26.50
2022-07-31T18:36:34.044Z,26.40
2022-07-31T18:39:02.546Z,26.40
2022-07-31T18:41:30.569Z,26.30
2022-07-31T18:43:58.992Z,26.20
2022-07-31T18:46:27.027Z,26.20
2022-07-31T18:48:56.469Z,26.00
2022-07-31T18:51:26.394Z,25.90
2022-07-31T18:53:54.948Z,25.80
2022-07-31T18:56:23.594Z,25.80
2022-07-31T18:58:51.861Z,25.70
2022-07-31T19:01:19.810Z,25.60
2022-07-31T19:03:47.787Z,25.40
2022-07-31T19:06:16.227Z,25.30
2022-07-31T19:08:46.080Z,25.20
2022-07-31T19:11:13.989Z,25.00
2022-07-31T19:13:41.897Z,24.90
2022-07-31T19:16:09.751Z,24.90
2022-07-31T19:18:40.255Z,24.70
2022-07-31T19:21:21.155Z,24.60
2022-07-31T19:23:53.329Z,24.40
2022-07-31T19:26:22.061Z,24.20
2022-07-31T19:28:49.973Z,24.00
2022-07-31T19:31:18.296Z,24.00
2022-07-31T19:33:46.186Z,23.90
2022-07-31T19:36:15.314Z,23.70
2022-07-31T19:38:44.482Z,23.60
2022-07-31T19:41:15.546Z,23.50
2022-07-31T19:43:44.620Z,23.40
2022-07-31T19:46:13.005Z,23.20
2022-07-31T19:48:43.235Z,23.10
2022-07-31T19:51:11.936Z,23.00
2022-07-31T19:53:39.917Z,22.90
2022-07-31T19:56:07.783Z,22.70
2022-07-31T19:58:38.305Z,22.60
2022-07-31T20:01:06.997Z,22.50
2022-07-31T20:03:35.740Z,22.40
2022-07-31T20:06:04.684Z,22.40
2022-07-31T20:08:33.321Z,22.30
2022-07-31T20:11:03.457Z,22.30
2022-07-31T20:13:31.959Z,22.20
2022-07-31T20:16:01.561Z,22.10
2022-07-31T20:18:30.498Z,22.00
2022-07-31T20:21:02.520Z,21.80
2022-07-31T20:23:34.066Z,21.80
2022-07-31T20:26:02.447Z,21.70
2022-07-31T20:28:30.406Z,21.70
2022-07-31T20:30:58.675Z,21.70
2022-07-31T20:33:27.879Z,21.80
2022-07-31T20:35:55.682Z,22.00
2022-07-31T20:38:24.945Z,22.10
2022-07-31T20:40:56.021Z,22.10
2022-07-31T20:43:24.885Z,22.00
2022-07-31T20:45:53.438Z,22.00
2022-07-31T20:48:24.188Z,22.10
2022-07-31T20:50:53.973Z,21.90
2022-07-31T20:53:22.982Z,21.70
2022-07-31T20:55:50.891Z,21.40
2022-07-31T20:58:19.427Z,21.20
2022-07-31T21:00:48.283Z,21.10
2022-07-31T21:03:16.671Z,21.00
2022-07-31T21:05:44.627Z,20.80
2022-07-31T21:08:13.813Z,20.70
2022-07-31T21:10:41.664Z,20.60
2022-07-31T21:13:09.754Z,20.60
2022-07-31T21:15:42.394Z,20.50
2022-07-31T21:18:12.702Z,20.50
2022-07-31T21:20:52.177Z,20.40
2022-07-31T21:23:24.369Z,20.40
2022-07-31T21:25:53.237Z,20.30
2022-07-31T21:28:22.142Z,20.30
2022-07-31T21:30:50.480Z,20.20
2022-07-31T21:33:18.839Z,20.10
2022-07-31T21:35:47.350Z,20.10
2022-07-31T21:38:16.152Z,20.10
2022-07-31T21:40:46.611Z,20.00
2022-07-31T21:43:16.622Z,20.10
2022-07-31T21:45:55.329Z,20.10
2022-07-31T21:48:27.177Z,20.00
2022-07-31T21:50:55.704Z,19.90
2022-07-31T21:53:23.937Z,19.90
2022-07-31T21:55:53.131Z,19.80
2022-07-31T21:58:20.994Z,19.70
2022-07-31T22:00:48.903Z,19.70
2022-07-31T22:03:16.852Z,19.60
2022-07-31T22:06:02.347Z,19.60
2022-07-31T22:08:30.251Z,19.50
2022-07-31T22:10:59.425Z,19.50
2022-07-31T22:13:27.315Z,19.30
2022-07-31T22:16:00.189Z,19.20
2022-07-31T22:18:29.740Z,19.20
2022-07-31T22:20:58.096Z,19.10
2022-07-31T22:23:27.415Z,19.00
2022-07-31T22:25:55.750Z,19.00
2022-07-31T22:28:26.465Z,18.90
2022-07-31T22:30:54.987Z,18.80
2022-07-31T22:33:22.992Z,18.80
2022-07-31T22:35:59.692Z,18.80
2022-07-31T22:38:29.582Z,18.70
2022-07-31T22:40:57.681Z,18.70
2022-07-31T22:44:14.159Z,18.60
2022-07-31T22:46:15.416Z,18.60
2022-07-31T22:48:45.254Z,18.50
2022-07-31T22:51:14.813Z,18.50
2022-07-31T22:53:43.475Z,18.50
2022-07-31T22:56:11.713Z,18.50
2022-07-31T22:58:40.918Z,18.50
2022-07-31T23:01:08.782Z,18.60
2022-07-31T23:03:36.608Z,18.70
2022-07-31T23:06:31.559Z,18.80
2022-07-31T23:08:54.650Z,19.00
2022-07-31T23:11:24.371Z,19.00
2022-07-31T23:13:53.730Z,19.10
2022-07-31T23:16:22.316Z,19.20
2022-07-31T23:18:50.684Z,19.30
2022-07-31T23:21:19.377Z,19.30
2022-07-31T23:23:48.766Z,19.20
2022-07-31T23:26:17.940Z,19.10
2022-07-31T23:28:45.774Z,19.10
2022-07-31T23:31:15.134Z,19.00
2022-07-31T23:33:43.280Z,18.80
2022-07-31T23:36:11.185Z,18.60
2022-07-31T23:38:39.298Z,18.50
2022-07-31T23:41:07.205Z,18.30
2022-07-31T23:43:34.337Z,18.20
2022-07-31T23:46:02.224Z,18.10
2022-07-31T23:48:31.409Z,17.90
2022-07-31T23:50:59.441Z,17.80
2022-07-31T23:53:27.327Z,17.80
2022-07-31T23:55:55.164Z,17.70
2022-07-31T23:58:23.013Z,17.60
